Main page
METAR-TAF:

METAR-TAF

Airports :

K14-fa-1c, Netherlands

Oil platform

latitude: 53-16-10N, longitude: 3-37-40E, elevation: 28 m

Current weather observation

The report was made 26 minutes ago, at 17:25 UTC
Wind 16 kt from the Northwest, varying between West and North/Northwest
Temperature 7°C
Humidity 76%
Pressure 1016 hPa
Visibility 10 km or more
Few clouds at a height of 1900 ft
Scattered clouds at a height of 2500 ft
Broken clouds at a height of 3100 ft
light drizzle

METAR: EHKV 281725Z AUTO 31016KT 260V330 9999 -DZ FEW019 SCT025 BKN031 07/03 Q1016

Time: 19:51 (17:51 UTC)


TAF: missing

Weather observations and forecasts of more than 4000 airports (METAR and TAF reports).

The available stations are represented by yellow and red dots on the map.

Hover mouse over dot to see the name of the station.

Then click to see weather observations and forecasts.

To change the map : click on the green buttons with a black cross to zoom in, on the green button with a dash to zoom out, or on the green arrows for adjacent maps.


METAR-TAF: